Time;durP1;ratioP1;P1;durP2;ratioP2;P2;SDS_P1;SDS_P2;PMS_P1;PMS_P2;Temp;Humidity;BMP_temperature;BMP_pressure;BME280_temperature;BME280_humidity;BME280_pressure;Samples;Min_cycle;Max_cycle;Signal;HPM_P1;HPM_P2
2021/08/30 00:02:00;;;;;;;7.78;7.28;;;;;;;;;;5108792;28;24877;-63
2021/08/30 00:04:25;;;;;;;7.83;7.23;;;;;;;;;;5108254;28;24811;-62
2021/08/30 00:06:50;;;;;;;7.40;6.90;;;;;;;;;;5108793;27;24496;-62
2021/08/30 00:09:16;;;;;;;6.97;6.47;;;;;;;;;;5107141;28;24421;-62
2021/08/30 00:11:41;;;;;;;6.63;6.20;;;;;;;;;;5101464;28;24870;-62
2021/08/30 00:14:07;;;;;;;6.33;5.90;;;;;;;;;;5108825;28;24432;-63
2021/08/30 00:16:32;;;;;;;6.73;6.33;;;;;;;;;;5117360;27;24958;-62
2021/08/30 00:18:57;;;;;;;7.03;6.53;;;;;;;;;;5113435;27;24969;-62
2021/08/30 00:21:23;;;;;;;6.43;5.93;;;;;;;;;;5108808;27;24428;-62
2021/08/30 00:23:48;;;;;;;5.70;5.30;;;;;;;;;;5108471;28;24831;-62
2021/08/30 00:26:13;;;;;;;6.10;5.70;;;;;;;;;;5108113;27;24490;-62
2021/08/30 00:28:40;;;;;;;6.13;5.63;;;;;;;;;;5111256;27;24810;-62
2021/08/30 00:31:05;;;;;;;6.03;5.57;;;;;;;;;;5118611;28;24518;-63
2021/08/30 00:33:30;;;;;;;6.20;5.80;;;;;;;;;;5108058;28;24504;-63
2021/08/30 00:35:55;;;;;;;5.50;5.18;;;;;;;;;;5108765;28;24787;-63
2021/08/30 00:38:20;;;;;;;5.80;5.40;;;;;;;;;;5108396;28;24978;-62
2021/08/30 00:40:46;;;;;;;6.25;5.75;;;;;;;;;;5107868;28;24440;-63
2021/08/30 00:43:11;;;;;;;5.87;5.47;;;;;;;;;;5107230;28;24417;-62
2021/08/30 00:45:36;;;;;;;6.55;6.05;;;;;;;;;;5108361;28;24475;-62
2021/08/30 00:48:01;;;;;;;6.20;5.80;;;;;;;;;;5109105;28;24417;-62
2021/08/30 00:50:27;;;;;;;5.90;5.50;;;;;;;;;;5107595;28;24446;-62
2021/08/30 00:52:52;;;;;;;6.50;5.90;;;;;;;;;;5108095;28;24443;-62
2021/08/30 00:55:18;;;;;;;6.45;5.97;;;;;;;;;;5107797;28;24439;-62
2021/08/30 00:57:43;;;;;;;5.83;5.43;;;;;;;;;;5108404;28;24453;-63
2021/08/30 01:00:09;;;;;;;6.53;6.13;;;;;;;;;;5107466;28;24481;-62
2021/08/30 01:02:34;;;;;;;6.50;6.10;;;;;;;;;;5107575;28;24536;-62
2021/08/30 01:05:00;;;;;;;5.67;5.27;;;;;;;;;;5107866;28;24428;-62
2021/08/30 01:07:43;;;;;;;5.90;5.50;;;;;;;;;;5110682;28;24849;-62
2021/08/30 01:10:12;;;;;;;5.30;5.00;;;;;;;;;;5111097;27;24996;-62
2021/08/30 01:12:46;;;;;;;5.70;5.30;;;;;;;;;;5095769;28;25010;-62
2021/08/30 01:15:13;;;;;;;6.40;6.00;;;;;;;;;;5111466;28;24429;-63
2021/08/30 01:17:38;;;;;;;6.20;5.80;;;;;;;;;;5111806;28;24402;-62
2021/08/30 01:20:08;;;;;;;6.30;5.90;;;;;;;;;;5123510;27;24489;-62
2021/08/30 01:22:34;;;;;;;6.60;6.10;;;;;;;;;;5111478;28;24417;-61
2021/08/30 01:25:00;;;;;;;5.70;5.30;;;;;;;;;;5111465;28;24478;-61
2021/08/30 01:27:27;;;;;;;5.60;5.30;;;;;;;;;;5111537;28;24455;-62
2021/08/30 01:29:55;;;;;;;6.80;6.40;;;;;;;;;;5115859;27;24420;-62
2021/08/30 01:32:28;;;;;;;6.13;5.73;;;;;;;;;;5117238;27;24405;-61
2021/08/30 01:34:55;;;;;;;5.93;5.53;;;;;;;;;;5111854;28;24483;-62
2021/08/30 01:37:20;;;;;;;6.18;5.68;;;;;;;;;;5111293;28;24939;-62
2021/08/30 01:39:45;;;;;;;5.80;5.30;;;;;;;;;;5111496;27;24431;-62
2021/08/30 01:42:11;;;;;;;6.07;5.68;;;;;;;;;;5118666;27;24811;-62
2021/08/30 01:44:36;;;;;;;5.77;5.37;;;;;;;;;;5111653;28;24462;-62
2021/08/30 01:47:01;;;;;;;5.68;5.28;;;;;;;;;;5111040;28;24923;-63
2021/08/30 01:49:28;;;;;;;5.50;5.10;;;;;;;;;;5110187;28;24433;-62
2021/08/30 01:51:53;;;;;;;5.90;5.50;;;;;;;;;;5110321;28;24416;-62
2021/08/30 01:54:19;;;;;;;6.00;5.50;;;;;;;;;;5111442;28;24783;-62
2021/08/30 01:56:50;;;;;;;5.90;5.50;;;;;;;;;;5112156;27;24887;-62
2021/08/30 02:02:00;;;;;;;5.80;5.40;;;;;;;;;;5114304;27;24482;-62
2021/08/30 02:04:25;;;;;;;6.50;6.00;;;;;;;;;;5110599;28;24979;-62
2021/08/30 02:06:50;;;;;;;6.70;6.20;;;;;;;;;;5110623;28;24413;-62
2021/08/30 02:09:15;;;;;;;6.00;5.60;;;;;;;;;;5110428;28;24409;-62
2021/08/30 02:11:41;;;;;;;6.00;5.60;;;;;;;;;;5111252;27;25389;-62
2021/08/30 02:14:08;;;;;;;6.68;6.18;;;;;;;;;;5111157;28;24454;-62
2021/08/30 02:16:34;;;;;;;6.50;6.00;;;;;;;;;;5109819;28;24447;-62
2021/08/30 02:19:18;;;;;;;6.07;5.68;;;;;;;;;;5110440;28;24421;-62
2021/08/30 02:21:46;;;;;;;5.80;5.40;;;;;;;;;;5110948;27;24512;-62
2021/08/30 02:24:11;;;;;;;5.78;5.38;;;;;;;;;;5113457;27;24434;-62
2021/08/30 02:26:39;;;;;;;6.30;5.90;;;;;;;;;;5117842;27;24413;-62
2021/08/30 02:29:06;;;;;;;5.80;5.40;;;;;;;;;;5106637;28;24466;-62
2021/08/30 02:31:31;;;;;;;5.80;5.40;;;;;;;;;;5110502;28;24414;-61
2021/08/30 02:33:57;;;;;;;6.10;5.70;;;;;;;;;;5108440;27;24416;-62
2021/08/30 02:36:23;;;;;;;5.13;4.82;;;;;;;;;;5120553;27;24406;-61
2021/08/30 02:38:50;;;;;;;6.35;5.85;;;;;;;;;;5110112;28;24503;-62
2021/08/30 02:41:15;;;;;;;6.68;6.18;;;;;;;;;;5109579;28;24969;-62
2021/08/30 02:43:40;;;;;;;5.82;5.43;;;;;;;;;;5109880;28;24497;-62
2021/08/30 02:46:06;;;;;;;5.83;5.43;;;;;;;;;;5109947;27;24428;-61
2021/08/30 02:48:32;;;;;;;6.70;6.20;;;;;;;;;;5109203;28;24532;-61
2021/08/30 02:50:57;;;;;;;6.88;6.30;;;;;;;;;;5103658;28;24458;-61
2021/08/30 02:53:23;;;;;;;6.37;5.90;;;;;;;;;;5107580;28;24471;-60
2021/08/30 02:55:48;;;;;;;6.93;6.43;;;;;;;;;;5109102;28;25032;-61
2021/08/30 02:58:14;;;;;;;6.40;5.90;;;;;;;;;;5110320;28;24512;-60
2021/08/30 03:00:39;;;;;;;6.50;6.00;;;;;;;;;;5109493;28;24413;-61
2021/08/30 03:03:04;;;;;;;7.30;6.70;;;;;;;;;;5109856;28;24492;-61
2021/08/30 03:05:30;;;;;;;6.97;6.47;;;;;;;;;;5107420;28;24454;-61
2021/08/30 03:07:56;;;;;;;6.60;6.10;;;;;;;;;;5109291;27;24478;-61
2021/08/30 03:10:21;;;;;;;7.07;6.57;;;;;;;;;;5108613;28;24967;-61
2021/08/30 03:12:49;;;;;;;7.33;6.83;;;;;;;;;;5109093;28;24436;-61
2021/08/30 03:15:16;;;;;;;8.90;8.10;;;;;;;;;;5109055;28;24765;-61
2021/08/30 03:17:42;;;;;;;9.48;8.68;;;;;;;;;;5109250;27;24442;-61
2021/08/30 03:20:08;;;;;;;10.20;9.40;;;;;;;;;;5109392;28;24408;-61
2021/08/30 03:22:34;;;;;;;9.10;8.40;;;;;;;;;;5108265;28;24500;-61
2021/08/30 03:25:01;;;;;;;8.75;8.05;;;;;;;;;;5108717;28;24418;-61
2021/08/30 03:27:26;;;;;;;9.27;8.57;;;;;;;;;;5108445;28;24421;-61
2021/08/30 03:29:52;;;;;;;8.50;7.80;;;;;;;;;;5108339;28;24767;-61
2021/08/30 03:32:17;;;;;;;8.97;8.27;;;;;;;;;;5106911;28;24784;-61
2021/08/30 03:34:43;;;;;;;9.30;8.60;;;;;;;;;;5108366;28;24524;-61
2021/08/30 03:37:08;;;;;;;9.10;8.40;;;;;;;;;;5108343;28;24959;-61
2021/08/30 03:39:33;;;;;;;9.30;8.50;;;;;;;;;;5108526;27;24413;-62
2021/08/30 03:42:00;;;;;;;8.40;7.70;;;;;;;;;;5106462;28;24413;-61
2021/08/30 03:44:25;;;;;;;9.40;8.60;;;;;;;;;;5125087;27;25063;-61
2021/08/30 03:46:54;;;;;;;9.25;8.55;;;;;;;;;;5109281;27;24512;-61
2021/08/30 03:49:19;;;;;;;8.80;8.20;;;;;;;;;;5108078;27;24429;-61
2021/08/30 03:51:46;;;;;;;8.88;8.18;;;;;;;;;;5108141;28;24437;-62
2021/08/30 03:54:12;;;;;;;7.70;7.10;;;;;;;;;;5102943;28;24575;-61
2021/08/30 03:56:37;;;;;;;7.90;7.30;;;;;;;;;;5123190;27;24575;-61
2021/08/30 03:59:03;;;;;;;8.70;8.00;;;;;;;;;;5104922;27;24509;-60
2021/08/30 04:01:29;;;;;;;7.70;7.10;;;;;;;;;;5111695;27;24444;-61
2021/08/30 04:03:56;;;;;;;8.63;7.93;;;;;;;;;;5118348;27;24417;-61
2021/08/30 04:06:23;;;;;;;8.70;7.90;;;;;;;;;;5110026;27;24401;-60
2021/08/30 04:08:48;;;;;;;9.90;9.00;;;;;;;;;;5116189;27;24417;-61
2021/08/30 04:11:15;;;;;;;8.68;7.88;;;;;;;;;;5109602;27;24456;-61
2021/08/30 04:13:40;;;;;;;9.60;8.80;;;;;;;;;;5109749;27;24970;-60
2021/08/30 04:16:06;;;;;;;9.50;8.70;;;;;;;;;;5107510;28;24452;-61
2021/08/30 04:18:31;;;;;;;10.53;9.53;;;;;;;;;;5105432;28;24972;-61
2021/08/30 04:20:56;;;;;;;9.27;8.47;;;;;;;;;;5108093;27;25122;-60
2021/08/30 04:23:21;;;;;;;9.00;8.20;;;;;;;;;;5107827;28;24413;-61
2021/08/30 04:25:46;;;;;;;9.10;8.40;;;;;;;;;;5109872;27;24421;-61
2021/08/30 04:28:11;;;;;;;8.50;7.90;;;;;;;;;;5128787;27;24435;-61
2021/08/30 04:30:38;;;;;;;8.97;8.27;;;;;;;;;;5108227;28;24417;-61
2021/08/30 04:33:09;;;;;;;9.15;8.45;;;;;;;;;;5107960;28;24776;-61
2021/08/30 04:35:34;;;;;;;8.50;7.90;;;;;;;;;;5107360;28;24432;-62
2021/08/30 04:37:59;;;;;;;9.43;8.63;;;;;;;;;;5106918;28;24417;-61
2021/08/30 04:40:24;;;;;;;8.93;8.23;;;;;;;;;;5106187;28;24998;-61
2021/08/30 04:42:49;;;;;;;8.75;7.95;;;;;;;;;;5106528;28;24421;-61
2021/08/30 04:45:15;;;;;;;8.20;7.60;;;;;;;;;;5106812;28;24429;-61
2021/08/30 04:47:40;;;;;;;8.50;7.70;;;;;;;;;;5109603;28;24436;-61
2021/08/30 04:50:06;;;;;;;8.30;7.70;;;;;;;;;;5111692;28;24438;-61
2021/08/30 04:52:31;;;;;;;7.70;7.10;;;;;;;;;;5103628;28;24818;-61
2021/08/30 04:54:56;;;;;;;7.80;7.20;;;;;;;;;;5102437;28;24426;-61
2021/08/30 04:57:21;;;;;;;6.70;6.20;;;;;;;;;;5104503;28;24468;-61
2021/08/30 04:59:47;;;;;;;6.80;6.30;;;;;;;;;;5104951;28;24414;-61
2021/08/30 05:02:12;;;;;;;7.13;6.63;;;;;;;;;;5104628;28;24410;-61
2021/08/30 05:04:37;;;;;;;7.20;6.70;;;;;;;;;;5104354;28;24509;-62
2021/08/30 05:07:02;;;;;;;6.80;6.30;;;;;;;;;;5104594;28;24474;-62
2021/08/30 05:09:28;;;;;;;7.70;7.10;;;;;;;;;;5106121;28;24469;-62
2021/08/30 05:11:53;;;;;;;8.30;7.70;;;;;;;;;;5106460;28;24529;-62
2021/08/30 05:14:18;;;;;;;6.80;6.30;;;;;;;;;;5105097;28;24486;-62
2021/08/30 05:16:43;;;;;;;6.60;6.00;;;;;;;;;;5104185;28;24437;-61
2021/08/30 05:19:09;;;;;;;6.10;5.70;;;;;;;;;;5104496;28;24965;-61
2021/08/30 05:21:34;;;;;;;7.50;6.90;;;;;;;;;;5101702;28;24417;-61
2021/08/30 05:23:59;;;;;;;7.23;6.73;;;;;;;;;;5096004;28;24514;-61
2021/08/30 05:26:25;;;;;;;6.80;6.30;;;;;;;;;;5104053;28;24420;-61
2021/08/30 05:28:51;;;;;;;6.50;6.00;;;;;;;;;;5103507;28;24514;-61
2021/08/30 05:31:16;;;;;;;7.00;6.50;;;;;;;;;;5102579;28;25284;-61
2021/08/30 05:33:41;;;;;;;6.05;5.65;;;;;;;;;;5104568;28;24398;-61
2021/08/30 05:36:06;;;;;;;5.50;5.10;;;;;;;;;;5104578;28;24521;-60
2021/08/30 05:38:32;;;;;;;6.50;6.00;;;;;;;;;;5104082;28;24410;-60
2021/08/30 05:40:57;;;;;;;6.70;6.20;;;;;;;;;;5106975;28;24460;-59
2021/08/30 05:43:23;;;;;;;6.70;6.20;;;;;;;;;;5110410;28;24414;-60
2021/08/30 05:45:48;;;;;;;8.70;8.03;;;;;;;;;;5106343;28;24608;-60
2021/08/30 05:48:14;;;;;;;6.78;6.20;;;;;;;;;;5107796;28;24481;-60
2021/08/30 05:50:39;;;;;;;7.43;6.83;;;;;;;;;;5107178;28;24515;-61
2021/08/30 05:53:04;;;;;;;6.40;5.90;;;;;;;;;;5124201;27;24955;-61
2021/08/30 05:55:29;;;;;;;6.70;6.20;;;;;;;;;;5131047;27;25055;-61
2021/08/30 05:57:54;;;;;;;6.40;5.90;;;;;;;;;;5131473;27;24405;-61
2021/08/30 06:00:19;;;;;;;6.40;5.90;;;;;;;;;;5119572;27;24417;-61
2021/08/30 06:02:45;;;;;;;6.80;6.30;;;;;;;;;;5118727;27;24409;-61
2021/08/30 06:05:10;;;;;;;6.75;6.25;;;;;;;;;;5121561;27;24444;-60
2021/08/30 06:07:35;;;;;;;6.13;5.73;;;;;;;;;;5093681;28;25010;-61
2021/08/30 06:10:00;;;;;;;6.40;6.00;;;;;;;;;;5126690;27;24401;-61
2021/08/30 06:12:26;;;;;;;6.70;6.20;;;;;;;;;;5124867;27;24478;-61
2021/08/30 06:14:51;;;;;;;6.63;6.13;;;;;;;;;;5113403;27;24468;-61
2021/08/30 06:17:16;;;;;;;5.55;5.15;;;;;;;;;;5115555;27;24418;-60
2021/08/30 06:19:42;;;;;;;4.60;4.30;;;;;;;;;;5126703;27;24814;-61
2021/08/30 06:22:08;;;;;;;6.18;5.78;;;;;;;;;;5112092;27;24429;-60
2021/08/30 06:24:33;;;;;;;7.25;6.65;;;;;;;;;;5121659;27;24473;-60
2021/08/30 06:26:59;;;;;;;7.00;6.50;;;;;;;;;;5107046;28;24833;-61
2021/08/30 06:29:24;;;;;;;7.43;6.93;;;;;;;;;;5109134;28;24424;-61
2021/08/30 06:31:49;;;;;;;7.47;6.88;;;;;;;;;;5122513;27;24968;-61
2021/08/30 06:34:14;;;;;;;8.40;7.60;;;;;;;;;;5109133;27;25059;-61
2021/08/30 06:36:39;;;;;;;9.40;8.70;;;;;;;;;;5109628;28;24413;-61
2021/08/30 06:39:04;;;;;;;7.53;7.03;;;;;;;;;;5109596;28;24556;-62
2021/08/30 06:41:30;;;;;;;7.80;7.27;;;;;;;;;;5114974;27;24412;-62
2021/08/30 06:43:55;;;;;;;6.70;6.20;;;;;;;;;;5111297;27;24413;-62
2021/08/30 06:46:20;;;;;;;8.40;7.73;;;;;;;;;;5089581;28;24544;-62
2021/08/30 06:48:45;;;;;;;7.27;6.77;;;;;;;;;;5098637;28;25039;-62
2021/08/30 06:51:11;;;;;;;6.20;5.80;;;;;;;;;;5109738;27;24521;-61
2021/08/30 06:53:36;;;;;;;7.10;6.60;;;;;;;;;;5109252;28;24905;-59
2021/08/30 06:56:01;;;;;;;6.78;6.18;;;;;;;;;;5106629;28;24425;-60
2021/08/30 06:58:26;;;;;;;7.10;6.60;;;;;;;;;;5106003;27;24431;-60
2021/08/30 07:00:51;;;;;;;7.00;6.50;;;;;;;;;;5110769;27;24413;-60
2021/08/30 07:03:16;;;;;;;6.10;5.70;;;;;;;;;;5108740;27;24954;-62
2021/08/30 07:05:41;;;;;;;5.22;4.93;;;;;;;;;;5106810;28;24429;-62
2021/08/30 07:08:07;;;;;;;4.93;4.63;;;;;;;;;;5107334;28;24481;-62
2021/08/30 07:10:32;;;;;;;5.70;5.30;;;;;;;;;;5109368;28;24968;-62
2021/08/30 07:12:57;;;;;;;7.53;6.93;;;;;;;;;;5110098;27;24452;-62
2021/08/30 07:15:22;;;;;;;8.20;7.60;;;;;;;;;;5106513;28;24409;-62
2021/08/30 07:17:48;;;;;;;6.70;6.20;;;;;;;;;;5106599;28;24489;-62
2021/08/30 07:20:13;;;;;;;6.67;6.23;;;;;;;;;;5108161;28;24408;-62
2021/08/30 07:22:38;;;;;;;9.17;7.10;;;;;;;;;;5108566;28;24412;-62
2021/08/30 07:25:04;;;;;;;7.90;7.30;;;;;;;;;;5121340;27;24455;-62
2021/08/30 07:27:29;;;;;;;9.07;8.38;;;;;;;;;;5129514;27;24404;-62
2021/08/30 07:29:54;;;;;;;7.75;7.20;;;;;;;;;;5110767;27;24524;-63
2021/08/30 07:32:20;;;;;;;7.40;6.80;;;;;;;;;;5108478;28;24966;-62
2021/08/30 07:34:45;;;;;;;6.53;6.13;;;;;;;;;;5108496;28;24426;-62
2021/08/30 07:37:10;;;;;;;7.10;6.60;;;;;;;;;;5109510;28;24950;-62
2021/08/30 07:39:35;;;;;;;6.70;6.20;;;;;;;;;;5109067;28;24484;-63
2021/08/30 07:42:01;;;;;;;6.97;6.47;;;;;;;;;;5108343;27;24942;-62
2021/08/30 07:44:26;;;;;;;7.27;6.77;;;;;;;;;;5118378;27;24486;-62
2021/08/30 07:46:51;;;;;;;6.87;6.37;;;;;;;;;;5102491;28;25034;-63
2021/08/30 07:49:16;;;;;;;9.27;8.57;;;;;;;;;;5091410;28;24437;-63
2021/08/30 07:51:41;;;;;;;9.82;9.13;;;;;;;;;;5092135;28;24405;-63
2021/08/30 07:54:07;;;;;;;9.77;9.07;;;;;;;;;;5121572;27;24420;-62
2021/08/30 07:56:37;;;;;;;10.85;10.05;;;;;;;;;;5129150;27;24990;-62
2021/08/30 07:59:02;;;;;;;12.20;11.30;;;;;;;;;;5116831;27;24390;-62
2021/08/30 08:01:28;;;;;;;11.18;10.38;;;;;;;;;;5107800;28;24978;-62
2021/08/30 08:03:53;;;;;;;10.57;9.77;;;;;;;;;;5114840;27;24512;-62
2021/08/30 08:06:20;;;;;;;11.00;10.20;;;;;;;;;;5128671;27;24388;-64
2021/08/30 08:08:45;;;;;;;10.80;10.00;;;;;;;;;;5128615;27;24802;-62
2021/08/30 08:11:12;;;;;;;10.07;9.37;;;;;;;;;;5128930;27;25006;-62
2021/08/30 08:13:37;;;;;;;11.90;11.00;;;;;;;;;;5126672;27;24399;-62
2021/08/30 08:16:02;;;;;;;10.10;9.30;;;;;;;;;;5113361;27;24421;-62
2021/08/30 08:18:28;;;;;;;7.90;7.30;;;;;;;;;;5107679;28;24439;-62
2021/08/30 08:20:53;;;;;;;7.60;7.00;;;;;;;;;;5108270;28;24451;-62
2021/08/30 08:23:18;;;;;;;7.60;7.10;;;;;;;;;;5107797;28;24416;-63
2021/08/30 08:25:43;;;;;;;8.30;7.70;;;;;;;;;;5120939;27;24423;-63
2021/08/30 08:28:08;;;;;;;6.35;5.95;;;;;;;;;;5127856;27;24424;-63
2021/08/30 08:30:33;;;;;;;5.53;5.13;;;;;;;;;;5123043;27;24413;-63
2021/08/30 08:32:59;;;;;;;5.40;5.00;;;;;;;;;;5108518;27;24402;-63
2021/08/30 08:35:24;;;;;;;7.87;7.03;;;;;;;;;;5107504;28;24995;-63
2021/08/30 08:37:50;;;;;;;7.00;6.40;;;;;;;;;;5107624;28;24481;-62
2021/08/30 08:40:15;;;;;;;5.90;5.50;;;;;;;;;;5107434;28;25009;-62
2021/08/30 08:42:41;;;;;;;5.80;5.40;;;;;;;;;;5108327;28;24972;-63
2021/08/30 08:45:07;;;;;;;5.80;5.40;;;;;;;;;;5128065;27;24405;-62
2021/08/30 08:47:34;;;;;;;4.45;4.15;;;;;;;;;;5126988;27;24882;-62
2021/08/30 08:49:59;;;;;;;4.85;4.45;;;;;;;;;;5107461;28;24572;-62
2021/08/30 08:52:26;;;;;;;4.00;3.70;;;;;;;;;;5108228;28;24382;-62
2021/08/30 08:54:51;;;;;;;3.95;3.65;;;;;;;;;;5122741;28;24873;-62
2021/08/30 08:57:16;;;;;;;4.22;3.92;;;;;;;;;;5128540;28;25188;-62
2021/08/30 08:59:54;;;;;;;5.50;5.10;;;;;;;;;;5128502;28;24427;-62
2021/08/30 09:02:24;;;;;;;4.20;3.90;;;;;;;;;;5128270;28;24396;-62
2021/08/30 09:04:49;;;;;;;4.30;4.00;;;;;;;;;;5126330;28;25046;-62
2021/08/30 09:07:14;;;;;;;4.40;4.10;;;;;;;;;;5109985;28;24508;-63
2021/08/30 09:09:40;;;;;;;3.92;3.67;;;;;;;;;;5107593;28;24786;-62
2021/08/30 09:12:06;;;;;;;4.03;3.73;;;;;;;;;;5107918;28;24449;-62
2021/08/30 09:14:31;;;;;;;3.60;3.40;;;;;;;;;;5110730;28;24980;-62
2021/08/30 09:17:06;;;;;;;4.57;4.17;;;;;;;;;;5128442;28;24965;-62
2021/08/30 09:19:32;;;;;;;3.70;3.50;;;;;;;;;;5128288;28;24423;-62
2021/08/30 09:21:57;;;;;;;3.10;2.90;;;;;;;;;;5116549;28;25312;-63
2021/08/30 09:24:23;;;;;;;3.65;3.45;;;;;;;;;;5107458;28;25015;-62
2021/08/30 09:26:50;;;;;;;2.90;2.70;;;;;;;;;;5108691;28;24410;-62
2021/08/30 09:29:16;;;;;;;3.40;3.20;;;;;;;;;;5111688;27;24425;-62
2021/08/30 09:31:41;;;;;;;4.80;4.40;;;;;;;;;;5111794;28;24393;-62
2021/08/30 09:34:10;;;;;;;3.60;3.30;;;;;;;;;;5111417;28;24803;-62
2021/08/30 09:36:42;;;;;;;4.43;4.13;;;;;;;;;;5111384;28;24409;-63
2021/08/30 09:39:07;;;;;;;3.78;3.58;;;;;;;;;;5111929;27;24515;-63
2021/08/30 09:41:35;;;;;;;3.60;3.40;;;;;;;;;;5110926;28;24943;-63
2021/08/30 09:44:01;;;;;;;3.00;2.80;;;;;;;;;;5102517;28;24414;-63
2021/08/30 09:46:27;;;;;;;3.80;3.50;;;;;;;;;;5111165;28;24501;-63
2021/08/30 09:48:52;;;;;;;2.80;2.60;;;;;;;;;;5111893;27;24425;-63
2021/08/30 09:51:23;;;;;;;3.70;3.40;;;;;;;;;;5111050;28;24466;-63
2021/08/30 09:53:48;;;;;;;4.00;3.70;;;;;;;;;;5110725;28;24382;-62
2021/08/30 09:56:14;;;;;;;3.63;3.42;;;;;;;;;;5110760;28;24533;-62
2021/08/30 09:58:40;;;;;;;3.13;2.93;;;;;;;;;;5109631;27;24483;-63
2021/08/30 10:01:05;;;;;;;6.50;6.00;;;;;;;;;;5118765;27;24834;-63
2021/08/30 10:03:38;;;;;;;5.60;5.10;;;;;;;;;;5108947;28;24995;-63
2021/08/30 10:06:03;;;;;;;6.30;5.80;;;;;;;;;;5110507;28;24390;-63
2021/08/30 10:08:29;;;;;;;5.10;4.70;;;;;;;;;;5110429;28;24421;-63
2021/08/30 10:10:54;;;;;;;5.38;5.00;;;;;;;;;;5111093;27;24401;-63
2021/08/30 10:13:20;;;;;;;5.70;5.30;;;;;;;;;;5109939;28;24414;-63
2021/08/30 10:15:48;;;;;;;5.20;4.90;;;;;;;;;;5110401;28;24417;-62
2021/08/30 10:18:16;;;;;;;6.10;5.70;;;;;;;;;;5110338;28;25108;-63
2021/08/30 10:20:42;;;;;;;5.80;5.40;;;;;;;;;;5111030;27;24409;-63
2021/08/30 10:23:08;;;;;;;5.93;5.43;;;;;;;;;;5089627;28;24402;-63
2021/08/30 10:25:34;;;;;;;6.60;6.10;;;;;;;;;;5089557;28;24455;-63
2021/08/30 10:28:04;;;;;;;6.80;6.30;;;;;;;;;;5089765;28;24429;-63
2021/08/30 10:30:29;;;;;;;5.80;5.40;;;;;;;;;;5103090;27;24434;-63
2021/08/30 10:32:57;;;;;;;6.20;5.70;;;;;;;;;;5109979;27;24426;-63
2021/08/30 10:35:24;;;;;;;4.70;4.40;;;;;;;;;;5109650;28;25182;-63
2021/08/30 10:37:50;;;;;;;4.50;4.20;;;;;;;;;;5109457;28;24405;-63
2021/08/30 10:40:16;;;;;;;4.45;4.15;;;;;;;;;;5109623;28;24911;-63
2021/08/30 10:42:41;;;;;;;4.28;4.00;;;;;;;;;;5110834;27;24963;-63
2021/08/30 10:45:07;;;;;;;3.85;3.55;;;;;;;;;;5109219;28;24420;-63
2021/08/30 10:47:33;;;;;;;4.20;3.90;;;;;;;;;;5109696;28;24801;-63
2021/08/30 10:49:58;;;;;;;3.92;3.63;;;;;;;;;;5110053;28;24433;-64
2021/08/30 10:52:23;;;;;;;3.15;2.95;;;;;;;;;;5110963;27;24513;-63
2021/08/30 10:54:56;;;;;;;3.00;2.80;;;;;;;;;;5109752;28;24471;-63
2021/08/30 10:57:37;;;;;;;2.80;2.60;;;;;;;;;;5109901;28;24464;-63
2021/08/30 11:00:04;;;;;;;3.50;3.20;;;;;;;;;;5109743;28;24408;-63
2021/08/30 11:02:35;;;;;;;3.17;2.97;;;;;;;;;;5111079;27;24498;-64
2021/08/30 11:05:01;;;;;;;3.28;3.08;;;;;;;;;;5109788;28;24401;-64
2021/08/30 11:07:26;;;;;;;3.67;3.37;;;;;;;;;;5109778;28;24404;-64
2021/08/30 11:09:51;;;;;;;4.30;4.00;;;;;;;;;;5109660;28;24473;-64
2021/08/30 11:12:19;;;;;;;3.72;3.53;;;;;;;;;;5109142;28;24907;-63
2021/08/30 11:14:53;;;;;;;3.50;3.20;;;;;;;;;;5109451;28;24837;-62
2021/08/30 11:17:24;;;;;;;3.60;3.40;;;;;;;;;;5119847;27;24405;-62
2021/08/30 11:19:52;;;;;;;3.65;3.40;;;;;;;;;;5129973;27;24425;-62
2021/08/30 11:22:17;;;;;;;3.50;3.30;;;;;;;;;;5114332;27;24401;-62
2021/08/30 11:24:45;;;;;;;3.55;3.35;;;;;;;;;;5126314;27;24419;-62
2021/08/30 11:27:12;;;;;;;3.00;2.80;;;;;;;;;;5129893;27;24404;-63
2021/08/30 11:29:41;;;;;;;3.50;3.20;;;;;;;;;;5110393;27;24504;-63
2021/08/30 11:32:07;;;;;;;3.38;3.17;;;;;;;;;;5109066;28;24421;-62
2021/08/30 11:34:33;;;;;;;3.30;3.10;;;;;;;;;;5120421;27;24452;-63
2021/08/30 11:37:00;;;;;;;3.20;3.00;;;;;;;;;;5119691;27;24427;-62
2021/08/30 11:39:25;;;;;;;3.05;2.85;;;;;;;;;;5109019;28;24942;-62
2021/08/30 11:41:52;;;;;;;3.50;3.30;;;;;;;;;;5108851;28;24393;-62
2021/08/30 11:44:17;;;;;;;2.42;2.33;;;;;;;;;;5113767;27;24550;-63
2021/08/30 11:46:42;;;;;;;3.40;3.20;;;;;;;;;;5118838;27;25042;-62
2021/08/30 11:49:07;;;;;;;2.80;2.60;;;;;;;;;;5108512;28;25081;-63
2021/08/30 11:51:36;;;;;;;3.03;2.83;;;;;;;;;;5108750;28;24386;-63
2021/08/30 11:54:01;;;;;;;2.70;2.60;;;;;;;;;;5108658;28;24394;-63
2021/08/30 11:56:33;;;;;;;3.00;2.80;;;;;;;;;;5126803;27;24424;-63
2021/08/30 11:59:00;;;;;;;2.92;2.72;;;;;;;;;;5129339;27;24409;-63
2021/08/30 12:01:25;;;;;;;2.90;2.75;;;;;;;;;;5129268;27;24388;-63
2021/08/30 12:03:50;;;;;;;2.60;2.50;;;;;;;;;;5114983;27;24417;-63
2021/08/30 12:06:20;;;;;;;3.00;2.80;;;;;;;;;;5120150;27;24457;-63
2021/08/30 12:08:48;;;;;;;2.70;2.50;;;;;;;;;;5128691;27;24853;-63
2021/08/30 12:11:13;;;;;;;2.70;2.50;;;;;;;;;;5128860;27;24396;-63
2021/08/30 12:13:55;;;;;;;2.60;2.50;;;;;;;;;;5113489;27;24406;-63
2021/08/30 12:16:26;;;;;;;2.60;2.40;;;;;;;;;;5113322;27;24512;-63
2021/08/30 12:18:53;;;;;;;2.60;2.40;;;;;;;;;;5096056;28;24496;-63
2021/08/30 12:21:31;;;;;;;3.08;2.88;;;;;;;;;;5108171;28;24732;-63
2021/08/30 12:23:57;;;;;;;2.70;2.60;;;;;;;;;;5107830;28;24935;-62
2021/08/30 12:26:22;;;;;;;2.93;2.73;;;;;;;;;;5108060;28;24410;-62
2021/08/30 12:28:53;;;;;;;3.40;3.20;;;;;;;;;;5107620;28;25032;-62
2021/08/30 12:31:45;;;;;;;3.50;3.30;;;;;;;;;;5107720;28;24435;-62
2021/08/30 12:34:12;;;;;;;3.40;3.20;;;;;;;;;;5103699;28;24443;-62
2021/08/30 12:36:37;;;;;;;3.80;3.50;;;;;;;;;;5109202;28;24435;-63
2021/08/30 12:39:04;;;;;;;3.40;3.20;;;;;;;;;;5128160;27;24479;-63
2021/08/30 12:41:29;;;;;;;3.10;2.90;;;;;;;;;;5115892;28;24951;-62
2021/08/30 12:43:54;;;;;;;2.70;2.50;;;;;;;;;;5107973;28;24401;-62
2021/08/30 12:46:20;;;;;;;3.10;2.90;;;;;;;;;;5107458;28;25046;-63
2021/08/30 12:48:45;;;;;;;2.97;2.78;;;;;;;;;;5108498;28;24439;-63
2021/08/30 12:51:11;;;;;;;2.90;2.70;;;;;;;;;;5107743;28;25021;-63
2021/08/30 12:53:37;;;;;;;2.80;2.60;;;;;;;;;;5107524;28;24410;-62
2021/08/30 12:56:03;;;;;;;2.55;2.45;;;;;;;;;;5107884;28;24479;-63
2021/08/30 12:58:28;;;;;;;2.30;2.20;;;;;;;;;;5108755;28;24955;-62
2021/08/30 13:00:53;;;;;;;1.90;1.80;;;;;;;;;;5108096;28;24787;-62
2021/08/30 13:03:18;;;;;;;2.10;2.00;;;;;;;;;;5109363;27;24406;-62
2021/08/30 13:05:43;;;;;;;1.60;1.50;;;;;;;;;;5112023;28;24421;-64
2021/08/30 13:08:10;;;;;;;2.10;1.90;;;;;;;;;;5106982;28;24448;-63
2021/08/30 13:10:37;;;;;;;2.38;2.28;;;;;;;;;;5111562;28;24445;-63
2021/08/30 13:13:02;;;;;;;2.30;2.20;;;;;;;;;;5111859;28;24390;-63
2021/08/30 13:15:27;;;;;;;2.10;2.00;;;;;;;;;;5109708;28;24433;-62
2021/08/30 13:17:53;;;;;;;2.40;2.30;;;;;;;;;;5111687;28;24401;-63
2021/08/30 13:20:18;;;;;;;2.20;2.10;;;;;;;;;;5110779;28;24478;-62
2021/08/30 13:22:44;;;;;;;2.20;2.10;;;;;;;;;;5108511;28;24426;-62
2021/08/30 13:25:14;;;;;;;2.30;2.20;;;;;;;;;;5092689;28;24432;-63
2021/08/30 13:27:40;;;;;;;1.85;1.75;;;;;;;;;;5108431;28;24429;-63
2021/08/30 13:30:06;;;;;;;2.00;1.90;;;;;;;;;;5111225;28;24957;-63
2021/08/30 13:32:31;;;;;;;1.90;1.70;;;;;;;;;;5111451;28;24504;-64
2021/08/30 13:34:56;;;;;;;2.07;1.97;;;;;;;;;;5108158;28;24418;-62
2021/08/30 13:37:21;;;;;;;1.87;1.77;;;;;;;;;;5111512;28;24398;-62
2021/08/30 13:39:46;;;;;;;2.10;1.90;;;;;;;;;;5110914;28;25213;-63
2021/08/30 13:42:11;;;;;;;2.20;1.80;;;;;;;;;;5110913;28;24455;-63
2021/08/30 13:44:37;;;;;;;1.90;1.80;;;;;;;;;;5111528;28;24424;-62
2021/08/30 13:47:02;;;;;;;1.90;1.80;;;;;;;;;;5111246;28;24470;-62
2021/08/30 13:49:27;;;;;;;2.40;2.20;;;;;;;;;;5111951;27;24528;-63
2021/08/30 13:51:52;;;;;;;2.30;2.20;;;;;;;;;;5131057;27;24417;-62
2021/08/30 13:54:17;;;;;;;2.20;2.10;;;;;;;;;;5128831;27;24941;-63
2021/08/30 13:56:42;;;;;;;1.80;1.70;;;;;;;;;;5111371;28;24423;-62
2021/08/30 13:59:08;;;;;;;1.90;1.80;;;;;;;;;;5110752;28;25003;-62
2021/08/30 14:01:33;;;;;;;1.80;1.70;;;;;;;;;;5110980;28;25010;-62
2021/08/30 14:03:58;;;;;;;2.10;2.00;;;;;;;;;;5127879;27;24504;-62
2021/08/30 14:06:23;;;;;;;2.00;1.90;;;;;;;;;;5131862;27;24432;-62
2021/08/30 14:08:48;;;;;;;2.20;2.10;;;;;;;;;;5131365;27;24740;-62
2021/08/30 14:11:13;;;;;;;2.15;2.05;;;;;;;;;;5131418;27;24423;-62
2021/08/30 14:13:39;;;;;;;2.00;1.80;;;;;;;;;;5120189;27;24990;-62
2021/08/30 14:16:04;;;;;;;2.03;1.93;;;;;;;;;;5110353;28;24474;-63
2021/08/30 14:18:29;;;;;;;2.20;2.10;;;;;;;;;;5107489;28;24413;-63
2021/08/30 14:20:55;;;;;;;2.20;2.10;;;;;;;;;;5109061;28;24752;-62
2021/08/30 14:23:20;;;;;;;2.38;2.28;;;;;;;;;;5110420;27;24448;-61
2021/08/30 14:25:45;;;;;;;2.20;2.10;;;;;;;;;;5108808;28;24409;-62
2021/08/30 14:28:11;;;;;;;2.40;2.20;;;;;;;;;;5109726;28;24960;-61
2021/08/30 14:30:36;;;;;;;2.00;1.90;;;;;;;;;;5109698;28;24414;-62
2021/08/30 14:33:01;;;;;;;2.20;2.10;;;;;;;;;;5110266;27;24413;-62
2021/08/30 14:35:26;;;;;;;1.67;1.58;;;;;;;;;;5109213;28;24448;-62
2021/08/30 14:37:51;;;;;;;1.95;1.85;;;;;;;;;;5110006;28;24488;-62
2021/08/30 14:40:16;;;;;;;2.00;1.90;;;;;;;;;;5109169;28;24437;-62